createdAt,value
2018-07-21T00:00:56.551Z,23.25
2018-07-21T00:01:56.573Z,23.21
2018-07-21T00:02:56.598Z,23.17
2018-07-21T00:03:56.621Z,23.15
2018-07-21T00:04:56.659Z,23.17
2018-07-21T00:05:56.675Z,23.23
2018-07-21T00:06:56.701Z,23.15
2018-07-21T00:07:56.723Z,23.18
2018-07-21T00:08:56.748Z,23.20
2018-07-21T00:09:56.777Z,23.25
2018-07-21T00:10:56.803Z,23.13
2018-07-21T00:11:56.827Z,23.15
2018-07-21T00:12:56.856Z,23.21
2018-07-21T00:13:56.875Z,23.28
2018-07-21T00:14:56.903Z,23.21
2018-07-21T00:15:56.928Z,23.27
2018-07-21T00:16:56.951Z,23.32
2018-07-21T00:17:56.985Z,23.20
2018-07-21T00:18:57.002Z,23.15
2018-07-21T00:19:57.027Z,23.15
2018-07-21T00:20:57.053Z,23.23
2018-07-21T00:21:57.081Z,23.08
2018-07-21T00:22:57.103Z,22.98
2018-07-21T00:23:57.131Z,22.91
2018-07-21T00:24:57.154Z,22.85
2018-07-21T00:25:58.134Z,22.72
2018-07-21T00:26:57.208Z,22.78
2018-07-21T00:27:57.229Z,22.70
2018-07-21T00:28:57.259Z,22.72
2018-07-21T00:29:57.282Z,22.68
2018-07-21T00:30:57.309Z,22.68
2018-07-21T00:31:57.333Z,22.70
2018-07-21T00:32:57.356Z,22.68
2018-07-21T00:33:57.388Z,22.69
2018-07-21T00:34:57.407Z,22.69
2018-07-21T00:35:57.433Z,22.72
2018-07-21T00:36:57.456Z,22.66
2018-07-21T00:37:57.484Z,22.69
2018-07-21T00:38:57.511Z,22.73
2018-07-21T00:39:57.532Z,22.70
2018-07-21T00:40:57.557Z,22.75
2018-07-21T00:41:57.583Z,22.70
2018-07-21T00:42:57.608Z,22.62
2018-07-21T00:43:57.635Z,22.69
2018-07-21T00:44:57.657Z,22.70
2018-07-21T00:45:57.683Z,22.81
2018-07-21T00:46:57.706Z,22.70
2018-07-21T00:47:57.732Z,22.66
2018-07-21T00:48:57.757Z,22.66
2018-07-21T00:49:57.787Z,22.59
2018-07-21T00:50:57.810Z,22.51
2018-07-21T00:51:57.835Z,22.44
2018-07-21T00:52:57.859Z,22.48
2018-07-21T00:53:57.883Z,22.51
2018-07-21T00:54:57.912Z,22.45
2018-07-21T00:55:57.933Z,22.47
2018-07-21T00:56:57.962Z,22.48
2018-07-21T00:57:58.235Z,22.53
2018-07-21T00:58:58.013Z,22.44
2018-07-21T00:59:58.034Z,22.45
2018-07-21T01:00:58.061Z,22.38
2018-07-21T01:01:58.087Z,22.32
2018-07-21T01:02:58.108Z,22.35
2018-07-21T01:03:58.133Z,22.29
2018-07-21T01:04:58.158Z,22.26
2018-07-21T01:05:58.187Z,22.23
2018-07-21T01:06:58.209Z,22.29
2018-07-21T01:07:58.239Z,22.30
2018-07-21T01:08:58.258Z,22.22
2018-07-21T01:09:58.286Z,22.28
2018-07-21T01:10:58.311Z,22.20
2018-07-21T01:11:58.332Z,22.15
2018-07-21T01:12:58.367Z,22.25
2018-07-21T01:13:58.383Z,22.23
2018-07-21T01:14:58.412Z,22.28
2018-07-21T01:15:58.434Z,22.23
2018-07-21T01:16:58.456Z,22.14
2018-07-21T01:17:58.484Z,22.15
2018-07-21T01:18:58.508Z,22.11
2018-07-21T01:19:58.534Z,22.17
2018-07-21T01:20:58.555Z,22.13
2018-07-21T01:21:58.580Z,22.15
2018-07-21T01:22:58.610Z,22.11
2018-07-21T01:23:58.629Z,22.15
2018-07-21T01:24:58.658Z,22.20
2018-07-21T01:25:58.681Z,22.20
2018-07-21T01:26:58.705Z,22.23
2018-07-21T01:27:58.728Z,22.20
2018-07-21T01:28:58.753Z,22.26
2018-07-21T01:29:58.781Z,22.20
2018-07-21T01:30:58.806Z,22.29
2018-07-21T01:31:58.828Z,22.26
2018-07-21T01:32:58.855Z,22.20
2018-07-21T01:33:58.877Z,22.29
2018-07-21T01:34:58.903Z,22.28
2018-07-21T01:35:58.926Z,22.30
2018-07-21T01:36:58.956Z,22.32
2018-07-21T01:37:58.977Z,22.36
2018-07-21T01:38:59.001Z,22.33
2018-07-21T01:39:59.027Z,22.29
2018-07-21T01:40:59.050Z,22.32
2018-07-21T01:41:59.078Z,22.25
2018-07-21T01:42:59.100Z,22.33
2018-07-21T01:43:59.128Z,22.22
2018-07-21T01:44:59.154Z,22.20
2018-07-21T01:45:59.175Z,22.15
2018-07-21T01:46:59.203Z,22.13
2018-07-21T01:47:59.227Z,22.13
2018-07-21T01:48:59.249Z,22.17
2018-07-21T01:49:59.274Z,22.14
2018-07-21T01:50:59.300Z,22.17
2018-07-21T01:51:59.624Z,22.17
2018-07-21T01:52:59.347Z,22.13
2018-07-21T01:53:59.379Z,22.20
2018-07-21T01:54:59.402Z,22.14
2018-07-21T01:55:59.424Z,22.04
2018-07-21T01:56:59.450Z,22.08
2018-07-21T01:57:59.472Z,22.07
2018-07-21T01:58:59.497Z,22.10
2018-07-21T01:59:59.522Z,21.98
2018-07-21T02:00:59.549Z,22.00
2018-07-21T02:01:59.576Z,22.02
2018-07-21T02:02:59.599Z,22.00
2018-07-21T02:03:59.622Z,22.04
2018-07-21T02:04:59.645Z,21.99
2018-07-21T02:05:59.673Z,21.98
2018-07-21T02:06:59.699Z,22.02
2018-07-21T02:07:59.720Z,21.98
2018-07-21T02:08:59.744Z,22.04
2018-07-21T02:09:59.769Z,21.93
2018-07-21T02:10:59.799Z,21.93
2018-07-21T02:11:59.821Z,21.96
2018-07-21T02:12:59.843Z,21.92
2018-07-21T02:13:59.870Z,21.88
2018-07-21T02:14:59.893Z,21.83
2018-07-21T02:15:59.919Z,21.95
2018-07-21T02:16:59.944Z,21.91
2018-07-21T02:17:59.967Z,21.80
2018-07-21T02:18:59.991Z,21.91
2018-07-21T02:20:00.022Z,21.92
2018-07-21T02:21:00.041Z,21.95
2018-07-21T02:22:00.068Z,21.82
2018-07-21T02:23:00.089Z,21.85
2018-07-21T02:24:00.113Z,21.91
2018-07-21T02:25:00.138Z,21.89
2018-07-21T02:26:00.165Z,21.88
2018-07-21T02:27:00.187Z,21.83
2018-07-21T02:28:00.211Z,21.88
2018-07-21T02:29:00.239Z,21.85
2018-07-21T02:30:00.263Z,21.82
2018-07-21T02:31:00.285Z,21.77
2018-07-21T02:32:00.312Z,21.83
2018-07-21T02:33:00.344Z,21.77
2018-07-21T02:34:00.362Z,21.82
2018-07-21T02:35:00.393Z,21.85
2018-07-21T02:36:00.407Z,21.89
2018-07-21T02:37:00.432Z,21.93
2018-07-21T02:38:00.457Z,21.99
2018-07-21T02:39:00.484Z,21.93
2018-07-21T02:40:00.517Z,21.88
2018-07-21T02:41:00.532Z,21.80
2018-07-21T02:42:00.558Z,21.85
2018-07-21T02:43:00.582Z,21.76
2018-07-21T02:44:00.604Z,21.67
2018-07-21T02:45:00.628Z,21.69
2018-07-21T02:46:00.659Z,21.72
2018-07-21T02:47:00.677Z,21.70
2018-07-21T02:48:00.705Z,21.70
2018-07-21T02:49:00.726Z,21.69
2018-07-21T02:50:00.755Z,21.69
2018-07-21T02:51:00.776Z,21.62
2018-07-21T02:52:00.814Z,21.60
2018-07-21T02:53:00.835Z,21.60
2018-07-21T02:54:00.849Z,21.57
2018-07-21T02:55:00.873Z,21.60
2018-07-21T02:56:00.896Z,21.55
2018-07-21T02:57:01.125Z,21.60
2018-07-21T02:58:00.950Z,21.61
2018-07-21T02:59:00.976Z,21.58
2018-07-21T03:00:00.995Z,21.54
2018-07-21T03:01:01.021Z,21.48
2018-07-21T03:02:01.044Z,21.40
2018-07-21T03:03:01.072Z,21.52
2018-07-21T03:04:01.099Z,21.46
2018-07-21T03:05:01.120Z,21.50
2018-07-21T03:06:01.142Z,21.36
2018-07-21T03:07:01.167Z,21.50
2018-07-21T03:08:01.192Z,21.48
2018-07-21T03:09:01.217Z,21.40
2018-07-21T03:10:01.360Z,21.40
2018-07-21T03:11:01.265Z,21.42
2018-07-21T03:12:01.291Z,21.39
2018-07-21T03:13:01.315Z,21.40
2018-07-21T03:14:01.340Z,21.42
2018-07-21T03:15:01.363Z,21.40
2018-07-21T03:16:01.385Z,21.33
2018-07-21T03:17:01.411Z,21.39
2018-07-21T03:18:01.438Z,21.36
2018-07-21T03:19:01.460Z,21.36
2018-07-21T03:20:01.482Z,21.37
2018-07-21T03:21:01.510Z,21.35
2018-07-21T03:22:01.531Z,21.30
2018-07-21T03:23:01.559Z,21.42
2018-07-21T03:24:01.581Z,21.36
2018-07-21T03:25:01.605Z,21.22
2018-07-21T03:26:01.631Z,21.27
2018-07-21T03:27:01.656Z,21.21
2018-07-21T03:28:01.676Z,21.15
2018-07-21T03:29:01.703Z,21.24
2018-07-21T03:30:01.729Z,21.33
2018-07-21T03:31:01.853Z,21.35
2018-07-21T03:32:01.774Z,21.27
2018-07-21T03:33:01.801Z,21.27
2018-07-21T03:34:01.827Z,21.30
2018-07-21T03:35:01.847Z,21.30
2018-07-21T03:36:01.871Z,21.27
2018-07-21T03:37:01.897Z,21.29
2018-07-21T03:38:01.922Z,21.32
2018-07-21T03:39:01.947Z,21.25
2018-07-21T03:40:01.967Z,21.30
2018-07-21T03:41:01.994Z,21.35
2018-07-21T03:42:02.015Z,21.27
2018-07-21T03:43:02.043Z,21.29
2018-07-21T03:44:02.067Z,21.32
2018-07-21T03:45:02.093Z,21.29
2018-07-21T03:46:02.114Z,21.33
2018-07-21T03:47:02.141Z,21.25
2018-07-21T03:48:02.160Z,21.24
2018-07-21T03:49:02.189Z,21.27
2018-07-21T03:50:02.210Z,21.22
2018-07-21T03:51:02.234Z,21.22
2018-07-21T03:52:02.260Z,21.22
2018-07-21T03:53:02.283Z,21.17
2018-07-21T03:54:02.308Z,21.11
2018-07-21T03:55:02.402Z,21.12
2018-07-21T03:56:02.355Z,21.15
2018-07-21T03:57:02.378Z,21.12
2018-07-21T03:58:02.402Z,21.20
2018-07-21T03:59:02.430Z,21.21
2018-07-21T04:00:02.453Z,21.25
2018-07-21T04:01:02.475Z,21.21
2018-07-21T04:02:02.499Z,21.21
2018-07-21T04:03:02.524Z,21.21
2018-07-21T04:04:02.550Z,21.24
2018-07-21T04:05:02.571Z,21.12
2018-07-21T04:06:02.596Z,21.18
2018-07-21T04:07:02.623Z,21.09
2018-07-21T04:08:02.647Z,21.14
2018-07-21T04:09:02.683Z,21.07
2018-07-21T04:10:02.694Z,21.11
2018-07-21T04:11:02.720Z,21.06
2018-07-21T04:12:02.742Z,21.05
2018-07-21T04:13:02.768Z,21.07
2018-07-21T04:14:02.791Z,21.07
2018-07-21T04:15:02.816Z,21.06
2018-07-21T04:16:02.840Z,21.03
2018-07-21T04:17:02.864Z,21.09
2018-07-21T04:18:02.889Z,21.05
2018-07-21T04:19:02.913Z,21.03
2018-07-21T04:20:02.936Z,21.03
2018-07-21T04:21:02.974Z,21.05
2018-07-21T04:22:02.984Z,21.09
2018-07-21T04:23:03.009Z,21.11
2018-07-21T04:24:03.082Z,21.11
2018-07-21T04:25:03.058Z,21.11
2018-07-21T04:26:03.081Z,21.22
2018-07-21T04:27:03.108Z,21.12
2018-07-21T04:28:03.126Z,21.27
2018-07-21T04:29:03.150Z,21.27
2018-07-21T04:30:03.177Z,21.21
2018-07-21T04:31:03.201Z,21.24
2018-07-21T04:32:03.224Z,21.20
2018-07-21T04:33:03.246Z,21.29
2018-07-21T04:34:03.273Z,21.27
2018-07-21T04:35:03.298Z,21.17
2018-07-21T04:36:03.322Z,21.20
2018-07-21T04:37:03.345Z,21.12
2018-07-21T04:38:03.372Z,21.14
2018-07-21T04:39:03.393Z,21.15
2018-07-21T04:40:03.417Z,21.18
2018-07-21T04:41:03.440Z,21.20
2018-07-21T04:42:03.468Z,21.15
2018-07-21T04:43:03.492Z,21.14
2018-07-21T04:44:03.515Z,21.24
2018-07-21T04:45:03.540Z,21.25
2018-07-21T04:46:03.561Z,21.22
2018-07-21T04:47:03.586Z,21.22
2018-07-21T04:48:03.610Z,21.12
2018-07-21T04:49:03.634Z,21.14
2018-07-21T04:50:03.658Z,21.17
2018-07-21T04:51:03.683Z,21.05
2018-07-21T04:52:03.705Z,21.15
2018-07-21T04:53:03.730Z,21.06
2018-07-21T04:54:03.755Z,21.05
2018-07-21T04:55:03.779Z,21.09
2018-07-21T04:56:03.802Z,21.06
2018-07-21T04:57:03.827Z,21.05
2018-07-21T04:58:03.854Z,21.11
2018-07-21T04:59:03.876Z,21.02
2018-07-21T05:00:03.899Z,21.12
2018-07-21T05:01:03.947Z,21.09
2018-07-21T05:02:03.948Z,21.05
2018-07-21T05:03:03.974Z,21.09
2018-07-21T05:04:04.000Z,21.11
2018-07-21T05:05:04.022Z,21.12
2018-07-21T05:06:04.047Z,21.14
2018-07-21T05:07:04.119Z,21.21
2018-07-21T05:08:04.094Z,21.21
2018-07-21T05:09:04.120Z,21.20
2018-07-21T05:10:04.141Z,21.18
2018-07-21T05:11:04.168Z,21.17
2018-07-21T05:12:04.228Z,21.24
2018-07-21T05:13:04.219Z,21.24
2018-07-21T05:14:04.239Z,21.27
2018-07-21T05:15:04.261Z,21.24
2018-07-21T05:16:04.287Z,21.18
2018-07-21T05:17:04.309Z,21.12
2018-07-21T05:18:04.335Z,21.14
2018-07-21T05:19:04.363Z,21.15
2018-07-21T05:20:04.385Z,21.12
2018-07-21T05:21:04.409Z,21.21
2018-07-21T05:22:04.430Z,21.21
2018-07-21T05:23:04.457Z,21.20
2018-07-21T05:24:04.481Z,21.20
2018-07-21T05:25:04.508Z,21.24
2018-07-21T05:26:04.628Z,21.29
2018-07-21T05:27:04.554Z,21.35
2018-07-21T05:28:04.578Z,21.45
2018-07-21T05:29:04.602Z,21.46
2018-07-21T05:30:04.628Z,21.48
2018-07-21T05:31:04.649Z,21.30
2018-07-21T05:32:04.672Z,21.37
2018-07-21T05:33:04.701Z,21.30
2018-07-21T05:34:04.727Z,21.39
2018-07-21T05:35:04.750Z,21.40
2018-07-21T05:36:04.770Z,21.37
2018-07-21T05:37:04.801Z,21.43
2018-07-21T05:38:04.818Z,21.45
2018-07-21T05:39:04.864Z,21.36
2018-07-21T05:40:04.870Z,21.48
2018-07-21T05:41:04.894Z,21.60
2018-07-21T05:42:04.918Z,21.52
2018-07-21T05:43:04.945Z,21.57
2018-07-21T05:44:04.964Z,21.61
2018-07-21T05:45:05.017Z,21.61
2018-07-21T05:46:05.016Z,21.60
2018-07-21T05:47:05.041Z,21.60
2018-07-21T05:48:05.064Z,21.60
2018-07-21T05:49:05.093Z,21.62
2018-07-21T05:50:05.112Z,21.73
2018-07-21T05:51:05.136Z,21.72
2018-07-21T05:52:05.162Z,21.70
2018-07-21T05:53:05.222Z,21.79
2018-07-21T05:54:05.210Z,21.85
2018-07-21T05:55:05.233Z,21.89
2018-07-21T05:56:05.258Z,22.00
2018-07-21T05:57:05.282Z,21.93
2018-07-21T05:58:05.310Z,22.00
2018-07-21T05:59:05.335Z,21.96
2018-07-21T06:00:05.361Z,21.98
2018-07-21T06:01:05.380Z,21.99
2018-07-21T06:02:05.405Z,22.06
2018-07-21T06:03:05.477Z,22.02
2018-07-21T06:04:05.457Z,22.02
2018-07-21T06:05:05.479Z,22.15
2018-07-21T06:06:05.506Z,22.11
2018-07-21T06:07:05.532Z,22.15
2018-07-21T06:08:05.556Z,22.15
2018-07-21T06:09:05.580Z,22.22
2018-07-21T06:10:05.615Z,22.14
2018-07-21T06:11:05.650Z,22.07
2018-07-21T06:12:05.659Z,22.02
2018-07-21T06:13:05.682Z,22.10
2018-07-21T06:14:05.706Z,22.08
2018-07-21T06:15:05.732Z,22.08
2018-07-21T06:16:05.754Z,22.17
2018-07-21T06:17:05.851Z,22.11
2018-07-21T06:18:05.805Z,22.13
2018-07-21T06:19:05.828Z,22.17
2018-07-21T06:20:05.856Z,21.91
2018-07-21T06:21:05.879Z,21.92
2018-07-21T06:22:05.905Z,21.88
2018-07-21T06:23:05.929Z,21.93
2018-07-21T06:24:05.953Z,22.07
2018-07-21T06:25:06.025Z,22.14
2018-07-21T06:26:06.004Z,22.17
2018-07-21T06:27:06.430Z,22.14
2018-07-21T06:28:06.095Z,22.13
2018-07-21T06:29:06.079Z,22.13
2018-07-21T06:30:06.111Z,22.22
2018-07-21T06:31:06.130Z,22.22
2018-07-21T06:32:06.152Z,22.25
2018-07-21T06:33:06.179Z,22.25
2018-07-21T06:34:06.201Z,22.22
2018-07-21T06:35:06.225Z,22.20
2018-07-21T06:36:06.249Z,22.14
2018-07-21T06:37:06.280Z,22.22
2018-07-21T06:38:06.299Z,22.25
2018-07-21T06:39:06.332Z,22.32
2018-07-21T06:40:06.350Z,22.25
2018-07-21T06:41:06.376Z,22.32
2018-07-21T06:42:06.405Z,22.36
2018-07-21T06:43:06.454Z,22.44
2018-07-21T06:44:06.451Z,22.44
2018-07-21T06:45:06.478Z,22.54
2018-07-21T06:46:06.503Z,22.48
2018-07-21T06:47:06.529Z,22.62
2018-07-21T06:48:06.550Z,22.59
2018-07-21T06:49:06.576Z,22.57
2018-07-21T06:50:06.603Z,22.63
2018-07-21T06:51:06.631Z,22.69
2018-07-21T06:52:06.650Z,22.70
2018-07-21T06:53:06.680Z,22.72
2018-07-21T06:54:06.701Z,22.65
2018-07-21T06:55:06.731Z,22.60
2018-07-21T06:56:06.754Z,22.63
2018-07-21T06:57:06.778Z,22.60
2018-07-21T06:58:06.802Z,22.55
2018-07-21T06:59:06.856Z,22.57
2018-07-21T07:00:06.854Z,22.53
2018-07-21T07:01:06.880Z,22.51
2018-07-21T07:02:06.902Z,22.62
2018-07-21T07:03:06.932Z,22.60
2018-07-21T07:04:06.956Z,22.54
2018-07-21T07:05:07.026Z,22.57
2018-07-21T07:06:07.005Z,22.48
2018-07-21T07:07:07.030Z,22.41
2018-07-21T07:08:07.057Z,22.45
2018-07-21T07:09:07.080Z,22.38
2018-07-21T07:10:07.159Z,22.45
2018-07-21T07:11:07.133Z,22.57
2018-07-21T07:12:07.158Z,22.65
2018-07-21T07:13:07.181Z,22.62
2018-07-21T07:14:07.209Z,22.70
2018-07-21T07:15:07.235Z,22.78
2018-07-21T07:16:07.257Z,22.70
2018-07-21T07:17:07.290Z,22.69
2018-07-21T07:18:07.309Z,22.76
2018-07-21T07:19:07.334Z,22.70
2018-07-21T07:20:07.358Z,22.73
2018-07-21T07:21:07.385Z,22.81
2018-07-21T07:22:07.408Z,22.69
2018-07-21T07:23:07.437Z,22.72
2018-07-21T07:24:07.462Z,22.72
2018-07-21T07:25:07.487Z,22.84
2018-07-21T07:26:07.512Z,22.83
2018-07-21T07:27:07.538Z,22.85
2018-07-21T07:28:07.566Z,22.90
2018-07-21T07:29:07.586Z,22.99
2018-07-21T07:30:07.612Z,23.05
2018-07-21T07:31:07.639Z,23.18
2018-07-21T07:32:07.667Z,23.08
2018-07-21T07:33:07.690Z,23.03
2018-07-21T07:34:07.713Z,22.96
2018-07-21T07:35:07.777Z,22.78
2018-07-21T07:36:07.769Z,22.75
2018-07-21T07:37:07.794Z,22.80
2018-07-21T07:38:07.815Z,22.75
2018-07-21T07:39:07.843Z,22.85
2018-07-21T07:40:07.868Z,22.80
2018-07-21T07:41:07.894Z,22.85
2018-07-21T07:42:07.930Z,22.81
2018-07-21T07:43:07.948Z,22.83
2018-07-21T07:44:07.969Z,22.87
2018-07-21T07:45:08.002Z,22.98
2018-07-21T07:46:08.021Z,22.91
2018-07-21T07:47:08.055Z,22.94
2018-07-21T07:48:08.071Z,23.00
2018-07-21T07:49:08.099Z,22.99
2018-07-21T07:50:08.123Z,22.98
2018-07-21T07:51:08.150Z,23.12
2018-07-21T07:52:08.181Z,23.15
2018-07-21T07:53:08.200Z,23.17
2018-07-21T07:54:08.229Z,23.27
2018-07-21T07:55:08.252Z,23.32
2018-07-21T07:56:08.280Z,23.39
2018-07-21T07:57:08.305Z,23.31
2018-07-21T07:58:08.331Z,23.39
2018-07-21T07:59:08.354Z,23.10
2018-07-21T08:00:08.382Z,23.17
2018-07-21T08:01:08.418Z,23.10
2018-07-21T08:02:08.431Z,23.24
2018-07-21T08:03:08.460Z,23.17
2018-07-21T08:04:08.486Z,23.20
2018-07-21T08:05:08.508Z,23.23
2018-07-21T08:06:08.534Z,23.41
2018-07-21T08:07:08.563Z,23.47
2018-07-21T08:08:08.592Z,23.61
2018-07-21T08:09:08.615Z,23.68
2018-07-21T08:10:08.640Z,23.80
2018-07-21T08:11:08.665Z,23.87
2018-07-21T08:12:08.693Z,23.96
2018-07-21T08:13:08.719Z,23.84
2018-07-21T08:14:08.797Z,23.73
2018-07-21T08:15:08.767Z,23.47
2018-07-21T08:16:08.795Z,23.40
2018-07-21T08:17:08.822Z,23.40
2018-07-21T08:18:08.872Z,23.41
2018-07-21T08:19:08.871Z,23.37
2018-07-21T08:20:08.900Z,23.41
2018-07-21T08:21:08.923Z,23.51
2018-07-21T08:22:08.948Z,23.61
2018-07-21T08:23:08.977Z,23.76
2018-07-21T08:24:09.003Z,23.63
2018-07-21T08:25:09.029Z,23.69
2018-07-21T08:26:09.055Z,23.80
2018-07-21T08:27:09.081Z,23.86
2018-07-21T08:28:09.109Z,23.93
2018-07-21T08:29:09.203Z,24.17
2018-07-21T08:30:09.169Z,24.24
2018-07-21T08:31:09.236Z,24.35
2018-07-21T08:32:09.220Z,24.39
2018-07-21T08:33:09.240Z,24.33
2018-07-21T08:34:09.264Z,24.33
2018-07-21T08:35:09.290Z,24.18
2018-07-21T08:36:09.315Z,24.24
2018-07-21T08:37:09.345Z,24.33
2018-07-21T08:38:09.369Z,24.32
2018-07-21T08:39:09.397Z,24.28
2018-07-21T08:40:09.424Z,24.32
2018-07-21T08:41:09.455Z,24.28
2018-07-21T08:42:09.476Z,24.18
2018-07-21T08:43:09.502Z,24.32
2018-07-21T08:44:09.530Z,24.33
2018-07-21T08:45:09.558Z,24.38
2018-07-21T08:46:09.587Z,24.55
2018-07-21T08:47:09.616Z,24.55
2018-07-21T08:48:09.641Z,24.65
2018-07-21T08:49:09.665Z,24.55
2018-07-21T08:50:09.692Z,24.76
2018-07-21T08:51:09.716Z,24.66
2018-07-21T08:52:09.745Z,24.57
2018-07-21T08:53:09.772Z,24.60
2018-07-21T08:54:09.796Z,24.68
2018-07-21T08:55:09.825Z,24.74
2018-07-21T08:56:09.863Z,24.48
2018-07-21T08:57:09.879Z,24.50
2018-07-21T08:58:09.904Z,24.43
2018-07-21T08:59:09.934Z,24.38
2018-07-21T09:00:09.959Z,24.51
2018-07-21T09:01:09.986Z,24.57
2018-07-21T09:02:10.013Z,24.38
2018-07-21T09:03:10.042Z,24.60
2018-07-21T09:04:10.066Z,24.69
2018-07-21T09:05:10.100Z,24.74
2018-07-21T09:06:10.120Z,24.77
2018-07-21T09:07:10.145Z,24.70
2018-07-21T09:08:10.173Z,24.93
2018-07-21T09:09:10.203Z,25.01
2018-07-21T09:10:10.235Z,25.07
2018-07-21T09:11:10.253Z,25.01
2018-07-21T09:12:10.282Z,25.11
2018-07-21T09:13:10.415Z,25.11
2018-07-21T09:14:10.339Z,25.16
2018-07-21T09:15:10.361Z,25.07
2018-07-21T09:16:10.387Z,24.92
2018-07-21T09:17:10.417Z,24.92
2018-07-21T09:18:10.443Z,24.93
2018-07-21T09:19:10.471Z,24.98
2018-07-21T09:20:10.496Z,25.10
2018-07-21T09:21:10.526Z,25.11
2018-07-21T09:22:10.550Z,25.16
2018-07-21T09:23:10.578Z,25.32
2018-07-21T09:24:10.608Z,25.31
2018-07-21T09:25:10.630Z,25.41
2018-07-21T09:26:10.661Z,25.26
2018-07-21T09:27:10.687Z,25.40
2018-07-21T09:28:10.739Z,25.51
2018-07-21T09:29:10.744Z,25.58
2018-07-21T09:30:10.771Z,25.26
2018-07-21T09:31:10.795Z,25.28
2018-07-21T09:32:10.822Z,25.40
2018-07-21T09:33:10.853Z,25.50
2018-07-21T09:34:10.905Z,25.53
2018-07-21T09:35:10.907Z,25.62
2018-07-21T09:36:10.934Z,25.53
2018-07-21T09:37:10.959Z,25.28
2018-07-21T09:38:10.989Z,25.18
2018-07-21T09:39:11.015Z,25.16
2018-07-21T09:40:11.057Z,25.25
2018-07-21T09:41:11.070Z,25.41
2018-07-21T09:42:11.098Z,25.38
2018-07-21T09:43:11.123Z,25.41
2018-07-21T09:44:11.153Z,25.46
2018-07-21T09:45:11.179Z,25.58
2018-07-21T09:46:11.211Z,25.54
2018-07-21T09:47:11.237Z,25.51
2018-07-21T09:48:11.262Z,25.58
2018-07-21T09:49:11.318Z,25.69
2018-07-21T09:50:11.315Z,25.58
2018-07-21T09:51:11.345Z,25.44
2018-07-21T09:52:11.370Z,25.21
2018-07-21T09:53:11.400Z,25.32
2018-07-21T09:54:11.428Z,25.33
2018-07-21T09:55:11.457Z,25.40
2018-07-21T09:56:11.484Z,25.51
2018-07-21T09:57:11.507Z,25.55
2018-07-21T09:58:11.537Z,25.70
2018-07-21T09:59:11.561Z,25.77
2018-07-21T10:00:11.588Z,25.77
2018-07-21T10:01:11.624Z,25.72
2018-07-21T10:02:11.648Z,25.78
2018-07-21T10:03:11.674Z,25.85
2018-07-21T10:04:11.699Z,25.90
2018-07-21T10:05:11.729Z,26.07
2018-07-21T10:06:11.758Z,26.21
2018-07-21T10:07:11.783Z,26.15
2018-07-21T10:08:11.808Z,26.18
2018-07-21T10:09:11.835Z,26.09
2018-07-21T10:10:11.866Z,26.02
2018-07-21T10:11:11.959Z,26.13
2018-07-21T10:12:11.918Z,26.07
2018-07-21T10:13:11.951Z,26.00
2018-07-21T10:14:11.976Z,26.21
2018-07-21T10:15:12.001Z,26.36
2018-07-21T10:16:12.031Z,26.36
2018-07-21T10:17:12.056Z,26.43
2018-07-21T10:18:12.085Z,26.45
2018-07-21T10:19:12.117Z,26.51
2018-07-21T10:20:12.142Z,26.45
2018-07-21T10:21:12.166Z,26.56
2018-07-21T10:22:12.277Z,26.58
2018-07-21T10:23:12.226Z,26.65
2018-07-21T10:24:12.249Z,26.63
2018-07-21T10:25:12.281Z,26.78
2018-07-21T10:26:12.308Z,26.70
2018-07-21T10:27:12.337Z,26.62
2018-07-21T10:28:12.382Z,26.58
2018-07-21T10:29:12.393Z,26.66
2018-07-21T10:30:12.461Z,26.68
2018-07-21T10:31:12.749Z,26.37
2018-07-21T10:32:12.476Z,26.40
2018-07-21T10:33:12.638Z,26.51
2018-07-21T10:34:12.531Z,26.66
2018-07-21T10:35:12.564Z,26.73
2018-07-21T10:36:12.586Z,26.84
2018-07-21T10:37:12.617Z,26.84
2018-07-21T10:38:12.711Z,26.89
2018-07-21T10:39:12.671Z,26.90
2018-07-21T10:40:12.697Z,26.97
2018-07-21T10:41:12.725Z,27.05
2018-07-21T10:42:12.755Z,26.95
2018-07-21T10:43:12.781Z,27.02
2018-07-21T10:44:12.809Z,27.07
2018-07-21T10:45:12.839Z,27.14
2018-07-21T10:46:12.866Z,27.12
2018-07-21T10:47:12.898Z,27.20
2018-07-21T10:48:12.923Z,27.36
2018-07-21T10:49:12.949Z,27.44
2018-07-21T10:50:12.980Z,27.47
2018-07-21T10:51:13.012Z,27.44
2018-07-21T10:52:13.036Z,27.52
2018-07-21T10:53:13.068Z,27.44
2018-07-21T10:54:13.094Z,27.47
2018-07-21T10:55:13.120Z,27.36
2018-07-21T10:56:13.151Z,27.27
2018-07-21T10:57:13.181Z,27.33
2018-07-21T10:58:13.210Z,27.42
2018-07-21T10:59:13.234Z,27.49
2018-07-21T11:00:13.274Z,27.54
2018-07-21T11:01:13.294Z,27.63
2018-07-21T11:02:13.321Z,27.48
2018-07-21T11:03:13.349Z,27.45
2018-07-21T11:04:13.378Z,27.52
2018-07-21T11:05:13.406Z,27.44
2018-07-21T11:06:13.435Z,27.35
2018-07-21T11:07:13.460Z,27.33
2018-07-21T11:08:13.492Z,27.30
2018-07-21T11:09:13.519Z,27.33
2018-07-21T11:10:13.549Z,27.47
2018-07-21T11:11:13.575Z,27.58
2018-07-21T11:12:13.603Z,27.65
2018-07-21T11:13:13.632Z,27.52
2018-07-21T11:14:13.659Z,27.54
2018-07-21T11:15:13.770Z,27.64
2018-07-21T11:16:13.718Z,27.70
2018-07-21T11:17:13.744Z,27.85
2018-07-21T11:18:13.772Z,27.95
2018-07-21T11:19:13.802Z,28.02
2018-07-21T11:20:13.833Z,27.95
2018-07-21T11:21:13.865Z,27.80
2018-07-21T11:22:13.887Z,27.42
2018-07-21T11:23:13.915Z,27.60
2018-07-21T11:24:13.946Z,27.40
2018-07-21T11:25:13.973Z,27.59
2018-07-21T11:26:14.004Z,27.73
2018-07-21T11:27:14.030Z,27.78
2018-07-21T11:28:14.059Z,27.93
2018-07-21T11:29:14.096Z,27.65
2018-07-21T11:30:14.117Z,27.77
2018-07-21T11:31:14.147Z,27.74
2018-07-21T11:32:14.172Z,27.52
2018-07-21T11:33:14.202Z,27.58
2018-07-21T11:34:14.230Z,27.59
2018-07-21T11:35:14.369Z,27.71
2018-07-21T11:36:14.498Z,27.83
2018-07-21T11:37:14.315Z,28.00
2018-07-21T11:38:14.345Z,27.67
2018-07-21T11:39:14.391Z,27.70
2018-07-21T11:40:14.399Z,27.67
2018-07-21T11:41:14.431Z,27.63
2018-07-21T11:42:14.459Z,27.71
2018-07-21T11:43:14.487Z,27.80
2018-07-21T11:44:14.521Z,27.82
2018-07-21T11:45:14.546Z,27.75
2018-07-21T11:46:14.578Z,27.58
2018-07-21T11:47:14.601Z,27.67
2018-07-21T11:48:14.636Z,27.59
2018-07-21T11:49:14.660Z,27.48
2018-07-21T11:50:14.687Z,27.59
2018-07-21T11:51:14.717Z,27.70
2018-07-21T11:52:14.744Z,27.85
2018-07-21T11:53:14.771Z,28.07
2018-07-21T11:54:14.803Z,28.07
2018-07-21T11:55:14.829Z,28.11
2018-07-21T11:56:14.859Z,28.19
2018-07-21T11:57:14.889Z,28.14
2018-07-21T11:58:14.915Z,28.15
2018-07-21T11:59:14.993Z,28.15
2018-07-21T12:00:14.972Z,28.01
2018-07-21T12:01:14.999Z,27.93
2018-07-21T12:02:15.030Z,28.10
2018-07-21T12:03:15.057Z,28.12
2018-07-21T12:04:15.089Z,28.30
2018-07-21T12:05:15.140Z,28.52
2018-07-21T12:06:15.144Z,28.62
2018-07-21T12:07:15.173Z,28.49
2018-07-21T12:08:15.199Z,28.49
2018-07-21T12:09:15.230Z,28.51
2018-07-21T12:10:15.260Z,28.49
2018-07-21T12:11:15.287Z,28.47
2018-07-21T12:12:15.314Z,28.41
2018-07-21T12:13:15.364Z,28.38
2018-07-21T12:14:15.374Z,28.37
2018-07-21T12:15:15.401Z,28.33
2018-07-21T12:16:15.428Z,28.26
2018-07-21T12:17:15.457Z,28.14
2018-07-21T12:18:15.487Z,28.20
2018-07-21T12:19:15.516Z,28.35
2018-07-21T12:20:15.566Z,28.51
2018-07-21T12:21:15.573Z,28.44
2018-07-21T12:22:15.602Z,28.25
2018-07-21T12:23:15.629Z,28.22
2018-07-21T12:24:15.661Z,28.33
2018-07-21T12:25:15.685Z,28.56
2018-07-21T12:26:15.713Z,28.54
2018-07-21T12:27:15.746Z,28.62
2018-07-21T12:28:15.774Z,28.74
2018-07-21T12:29:15.803Z,28.86
2018-07-21T12:30:15.832Z,28.81
2018-07-21T12:31:15.860Z,28.86
2018-07-21T12:32:15.886Z,28.86
2018-07-21T12:33:15.914Z,29.02
2018-07-21T12:34:15.971Z,29.04
2018-07-21T12:35:15.974Z,29.12
2018-07-21T12:36:16.001Z,29.08
2018-07-21T12:37:16.032Z,29.17
2018-07-21T12:38:16.062Z,29.13
2018-07-21T12:39:16.091Z,29.27
2018-07-21T12:40:16.120Z,29.36
2018-07-21T12:41:16.199Z,29.38
2018-07-21T12:42:16.180Z,29.24
2018-07-21T12:43:16.209Z,28.93
2018-07-21T12:44:16.232Z,28.51
2018-07-21T12:45:16.264Z,28.60
2018-07-21T12:46:16.300Z,28.64
2018-07-21T12:47:16.382Z,28.67
2018-07-21T12:48:16.351Z,28.63
2018-07-21T12:49:16.381Z,28.82
2018-07-21T12:50:16.408Z,28.74
2018-07-21T12:51:16.436Z,28.72
2018-07-21T12:52:16.464Z,28.82
2018-07-21T12:53:16.497Z,28.78